sensor_id;sensor_type;location;lat;lon;timestamp;P1;durP1;ratioP1;P2;durP2;ratioP2
49183;SDS011;35021;49.214;12.270;2022-11-20T00:00:57;6.50;;;5.90;;
49183;SDS011;35021;49.214;12.270;2022-11-20T00:03:33;6.70;;;6.10;;
49183;SDS011;35021;49.214;12.270;2022-11-20T00:06:03;7.00;;;6.28;;
49183;SDS011;35021;49.214;12.270;2022-11-20T00:08:32;7.20;;;6.50;;
49183;SDS011;35021;49.214;12.270;2022-11-20T00:11:06;6.82;;;6.20;;
49183;SDS011;35021;49.214;12.270;2022-11-20T00:13:40;6.63;;;6.03;;
49183;SDS011;35021;49.214;12.270;2022-11-20T00:16:08;6.25;;;5.65;;
49183;SDS011;35021;49.214;12.270;2022-11-20T00:18:36;7.60;;;6.80;;
49183;SDS011;35021;49.214;12.270;2022-11-20T00:23:32;6.88;;;6.18;;
49183;SDS011;35021;49.214;12.270;2022-11-20T00:26:06;6.60;;;6.00;;
49183;SDS011;35021;49.214;12.270;2022-11-20T00:28:38;7.03;;;5.90;;
49183;SDS011;35021;49.214;12.270;2022-11-20T00:31:07;6.50;;;5.88;;
49183;SDS011;35021;49.214;12.270;2022-11-20T00:33:35;6.43;;;5.82;;
49183;SDS011;35021;49.214;12.270;2022-11-20T00:36:03;6.40;;;5.80;;
49183;SDS011;35021;49.214;12.270;2022-11-20T00:38:31;7.18;;;6.47;;
49183;SDS011;35021;49.214;12.270;2022-11-20T00:40:59;7.15;;;6.45;;
49183;SDS011;35021;49.214;12.270;2022-11-20T00:43:27;7.28;;;6.57;;
49183;SDS011;35021;49.214;12.270;2022-11-20T00:46:01;7.22;;;6.53;;
49183;SDS011;35021;49.214;12.270;2022-11-20T00:48:30;7.27;;;6.57;;
49183;SDS011;35021;49.214;12.270;2022-11-20T00:50:57;7.35;;;6.65;;
49183;SDS011;35021;49.214;12.270;2022-11-20T00:53:25;8.00;;;7.20;;
49183;SDS011;35021;49.214;12.270;2022-11-20T00:56:02;7.25;;;6.55;;
49183;SDS011;35021;49.214;12.270;2022-11-20T00:58:41;6.82;;;6.13;;
49183;SDS011;35021;49.214;12.270;2022-11-20T01:01:14;6.72;;;6.05;;
49183;SDS011;35021;49.214;12.270;2022-11-20T01:03:42;7.43;;;6.72;;
49183;SDS011;35021;49.214;12.270;2022-11-20T01:06:15;7.25;;;6.55;;
49183;SDS011;35021;49.214;12.270;2022-11-20T01:08:44;6.82;;;6.13;;
49183;SDS011;35021;49.214;12.270;2022-11-20T01:11:15;6.72;;;6.03;;
49183;SDS011;35021;49.214;12.270;2022-11-20T01:13:45;7.05;;;6.35;;
49183;SDS011;35021;49.214;12.270;2022-11-20T01:18:44;7.00;;;6.30;;
49183;SDS011;35021;49.214;12.270;2022-11-20T01:21:16;7.40;;;6.10;;
49183;SDS011;35021;49.214;12.270;2022-11-20T01:23:49;7.80;;;7.00;;
49183;SDS011;35021;49.214;12.270;2022-11-20T01:26:18;7.28;;;6.57;;
49183;SDS011;35021;49.214;12.270;2022-11-20T01:28:47;6.95;;;6.25;;
49183;SDS011;35021;49.214;12.270;2022-11-20T01:33:58;7.10;;;6.50;;
49183;SDS011;35021;49.214;12.270;2022-11-20T01:36:28;7.32;;;6.63;;
49183;SDS011;35021;49.214;12.270;2022-11-20T01:38:57;6.85;;;6.25;;
49183;SDS011;35021;49.214;12.270;2022-11-20T01:41:27;6.75;;;6.15;;
49183;SDS011;35021;49.214;12.270;2022-11-20T01:44:15;7.40;;;6.70;;
49183;SDS011;35021;49.214;12.270;2022-11-20T01:49:26;7.53;;;6.75;;
49183;SDS011;35021;49.214;12.270;2022-11-20T01:52:00;8.48;;;7.63;;
49183;SDS011;35021;49.214;12.270;2022-11-20T01:54:34;8.20;;;7.40;;
49183;SDS011;35021;49.214;12.270;2022-11-20T01:57:07;7.43;;;6.72;;
49183;SDS011;35021;49.214;12.270;2022-11-20T01:59:37;8.07;;;7.28;;
49183;SDS011;35021;49.214;12.270;2022-11-20T02:02:07;8.45;;;7.65;;
49183;SDS011;35021;49.214;12.270;2022-11-20T02:04:34;7.60;;;6.97;;
49183;SDS011;35021;49.214;12.270;2022-11-20T02:07:02;8.43;;;7.63;;
49183;SDS011;35021;49.214;12.270;2022-11-20T02:09:31;8.73;;;7.82;;
49183;SDS011;35021;49.214;12.270;2022-11-20T02:11:58;8.88;;;8.00;;
49183;SDS011;35021;49.214;12.270;2022-11-20T02:14:26;9.23;;;8.32;;
49183;SDS011;35021;49.214;12.270;2022-11-20T02:16:54;8.95;;;8.05;;
49183;SDS011;35021;49.214;12.270;2022-11-20T02:19:26;9.02;;;8.23;;
49183;SDS011;35021;49.214;12.270;2022-11-20T02:24:27;9.57;;;8.68;;
49183;SDS011;35021;49.214;12.270;2022-11-20T02:29:33;9.75;;;8.80;;
49183;SDS011;35021;49.214;12.270;2022-11-20T02:32:04;10.27;;;9.23;;
49183;SDS011;35021;49.214;12.270;2022-11-20T02:34:31;9.93;;;8.93;;
49183;SDS011;35021;49.214;12.270;2022-11-20T02:36:58;10.27;;;9.20;;
49183;SDS011;35021;49.214;12.270;2022-11-20T02:39:27;10.38;;;9.40;;
49183;SDS011;35021;49.214;12.270;2022-11-20T02:41:54;9.77;;;8.77;;
49183;SDS011;35021;49.214;12.270;2022-11-20T02:44:22;9.77;;;8.57;;
49183;SDS011;35021;49.214;12.270;2022-11-20T02:46:49;9.75;;;8.85;;
49183;SDS011;35021;49.214;12.270;2022-11-20T02:49:15;9.65;;;8.75;;
49183;SDS011;35021;49.214;12.270;2022-11-20T02:51:43;10.38;;;9.38;;
49183;SDS011;35021;49.214;12.270;2022-11-20T02:54:10;9.90;;;8.90;;
49183;SDS011;35021;49.214;12.270;2022-11-20T02:56:40;10.35;;;9.25;;
49183;SDS011;35021;49.214;12.270;2022-11-20T02:59:06;10.82;;;9.73;;
49183;SDS011;35021;49.214;12.270;2022-11-20T03:01:33;10.77;;;9.68;;
49183;SDS011;35021;49.214;12.270;2022-11-20T03:04:00;10.70;;;9.63;;
49183;SDS011;35021;49.214;12.270;2022-11-20T03:06:28;10.82;;;9.73;;
49183;SDS011;35021;49.214;12.270;2022-11-20T03:08:55;10.35;;;9.35;;
49183;SDS011;35021;49.214;12.270;2022-11-20T03:11:23;10.63;;;9.52;;
49183;SDS011;35021;49.214;12.270;2022-11-20T03:13:50;9.98;;;8.98;;
49183;SDS011;35021;49.214;12.270;2022-11-20T03:16:19;9.70;;;8.70;;
49183;SDS011;35021;49.214;12.270;2022-11-20T03:18:47;10.15;;;9.15;;
49183;SDS011;35021;49.214;12.270;2022-11-20T03:21:15;10.27;;;9.27;;
49183;SDS011;35021;49.214;12.270;2022-11-20T03:23:42;9.95;;;9.05;;
49183;SDS011;35021;49.214;12.270;2022-11-20T03:26:20;9.93;;;8.98;;
49183;SDS011;35021;49.214;12.270;2022-11-20T03:28:52;10.05;;;9.05;;
49183;SDS011;35021;49.214;12.270;2022-11-20T03:31:25;10.53;;;9.53;;
49183;SDS011;35021;49.214;12.270;2022-11-20T03:33:56;10.35;;;9.35;;
49183;SDS011;35021;49.214;12.270;2022-11-20T03:36:24;10.55;;;9.45;;
49183;SDS011;35021;49.214;12.270;2022-11-20T03:38:52;9.90;;;8.90;;
49183;SDS011;35021;49.214;12.270;2022-11-20T03:41:21;10.60;;;9.60;;
49183;SDS011;35021;49.214;12.270;2022-11-20T03:43:50;10.18;;;9.07;;
49183;SDS011;35021;49.214;12.270;2022-11-20T03:46:19;10.45;;;9.45;;
49183;SDS011;35021;49.214;12.270;2022-11-20T03:48:46;9.93;;;8.88;;
49183;SDS011;35021;49.214;12.270;2022-11-20T03:51:21;9.60;;;8.70;;
49183;SDS011;35021;49.214;12.270;2022-11-20T03:53:51;10.10;;;9.10;;
49183;SDS011;35021;49.214;12.270;2022-11-20T03:56:21;9.98;;;8.98;;
49183;SDS011;35021;49.214;12.270;2022-11-20T03:58:50;10.32;;;9.32;;
49183;SDS011;35021;49.214;12.270;2022-11-20T04:01:17;9.80;;;8.80;;
49183;SDS011;35021;49.214;12.270;2022-11-20T04:03:46;10.52;;;9.38;;
49183;SDS011;35021;49.214;12.270;2022-11-20T04:06:15;10.15;;;9.15;;
49183;SDS011;35021;49.214;12.270;2022-11-20T04:08:46;10.00;;;9.00;;
49183;SDS011;35021;49.214;12.270;2022-11-20T04:11:20;10.05;;;9.05;;
49183;SDS011;35021;49.214;12.270;2022-11-20T04:13:52;10.65;;;9.60;;
49183;SDS011;35021;49.214;12.270;2022-11-20T04:16:21;10.77;;;9.75;;
49183;SDS011;35021;49.214;12.270;2022-11-20T04:18:55;11.20;;;10.20;;
49183;SDS011;35021;49.214;12.270;2022-11-20T04:21:24;11.05;;;9.98;;
49183;SDS011;35021;49.214;12.270;2022-11-20T04:23:52;10.00;;;9.10;;
49183;SDS011;35021;49.214;12.270;2022-11-20T04:26:19;11.05;;;9.82;;
49183;SDS011;35021;49.214;12.270;2022-11-20T04:28:47;10.63;;;9.63;;
49183;SDS011;35021;49.214;12.270;2022-11-20T04:31:15;10.25;;;9.20;;
49183;SDS011;35021;49.214;12.270;2022-11-20T04:33:46;10.45;;;9.45;;
49183;SDS011;35021;49.214;12.270;2022-11-20T04:36:14;10.38;;;9.38;;
49183;SDS011;35021;49.214;12.270;2022-11-20T04:38:42;10.05;;;9.05;;
49183;SDS011;35021;49.214;12.270;2022-11-20T04:41:16;11.05;;;9.95;;
49183;SDS011;35021;49.214;12.270;2022-11-20T04:43:49;11.30;;;10.23;;
49183;SDS011;35021;49.214;12.270;2022-11-20T04:46:17;10.13;;;9.13;;
49183;SDS011;35021;49.214;12.270;2022-11-20T04:48:45;10.30;;;9.30;;
49183;SDS011;35021;49.214;12.270;2022-11-20T04:51:12;9.93;;;8.95;;
49183;SDS011;35021;49.214;12.270;2022-11-20T04:53:39;10.63;;;9.63;;
49183;SDS011;35021;49.214;12.270;2022-11-20T04:56:07;10.13;;;9.13;;
49183;SDS011;35021;49.214;12.270;2022-11-20T04:58:36;10.05;;;8.82;;
49183;SDS011;35021;49.214;12.270;2022-11-20T05:01:07;10.70;;;9.63;;
49183;SDS011;35021;49.214;12.270;2022-11-20T05:03:37;10.48;;;9.48;;
49183;SDS011;35021;49.214;12.270;2022-11-20T05:06:08;10.25;;;9.25;;
49183;SDS011;35021;49.214;12.270;2022-11-20T05:08:36;10.60;;;9.60;;
49183;SDS011;35021;49.214;12.270;2022-11-20T05:11:11;10.80;;;9.80;;
49183;SDS011;35021;49.214;12.270;2022-11-20T05:13:39;11.15;;;10.02;;
49183;SDS011;35021;49.214;12.270;2022-11-20T05:16:27;10.88;;;9.82;;
49183;SDS011;35021;49.214;12.270;2022-11-20T05:18:54;11.82;;;10.63;;
49183;SDS011;35021;49.214;12.270;2022-11-20T05:21:21;10.68;;;9.57;;
49183;SDS011;35021;49.214;12.270;2022-11-20T05:23:48;10.77;;;9.68;;
49183;SDS011;35021;49.214;12.270;2022-11-20T05:26:16;10.88;;;9.77;;
49183;SDS011;35021;49.214;12.270;2022-11-20T05:28:45;10.57;;;9.57;;
49183;SDS011;35021;49.214;12.270;2022-11-20T05:31:14;11.32;;;10.23;;
49183;SDS011;35021;49.214;12.270;2022-11-20T05:33:51;10.65;;;9.65;;
49183;SDS011;35021;49.214;12.270;2022-11-20T05:36:18;9.70;;;8.90;;
49183;SDS011;35021;49.214;12.270;2022-11-20T05:38:45;10.60;;;9.52;;
49183;SDS011;35021;49.214;12.270;2022-11-20T05:41:17;10.80;;;9.55;;
49183;SDS011;35021;49.214;12.270;2022-11-20T05:43:46;10.63;;;9.63;;
49183;SDS011;35021;49.214;12.270;2022-11-20T05:46:14;10.23;;;9.23;;
49183;SDS011;35021;49.214;12.270;2022-11-20T05:48:43;9.85;;;8.95;;
49183;SDS011;35021;49.214;12.270;2022-11-20T05:51:11;10.98;;;9.88;;
49183;SDS011;35021;49.214;12.270;2022-11-20T05:53:40;10.80;;;9.80;;
49183;SDS011;35021;49.214;12.270;2022-11-20T05:56:15;10.43;;;9.43;;
49183;SDS011;35021;49.214;12.270;2022-11-20T05:58:44;9.75;;;8.85;;
49183;SDS011;35021;49.214;12.270;2022-11-20T06:03:43;10.43;;;9.38;;
49183;SDS011;35021;49.214;12.270;2022-11-20T06:06:14;10.98;;;9.88;;
49183;SDS011;35021;49.214;12.270;2022-11-20T06:08:41;11.02;;;9.93;;
49183;SDS011;35021;49.214;12.270;2022-11-20T06:11:10;10.90;;;9.82;;
49183;SDS011;35021;49.214;12.270;2022-11-20T06:13:38;10.57;;;9.50;;
49183;SDS011;35021;49.214;12.270;2022-11-20T06:16:08;10.85;;;9.75;;
49183;SDS011;35021;49.214;12.270;2022-11-20T06:18:35;9.90;;;8.90;;
49183;SDS011;35021;49.214;12.270;2022-11-20T06:21:12;10.38;;;9.38;;
49183;SDS011;35021;49.214;12.270;2022-11-20T06:23:41;10.35;;;9.38;;
49183;SDS011;35021;49.214;12.270;2022-11-20T06:26:21;10.48;;;9.48;;
49183;SDS011;35021;49.214;12.270;2022-11-20T06:28:49;10.18;;;9.07;;
49183;SDS011;35021;49.214;12.270;2022-11-20T06:31:17;10.35;;;9.35;;
49183;SDS011;35021;49.214;12.270;2022-11-20T06:33:46;9.60;;;8.70;;
49183;SDS011;35021;49.214;12.270;2022-11-20T06:36:14;9.52;;;8.55;;
49183;SDS011;35021;49.214;12.270;2022-11-20T06:38:42;9.18;;;8.27;;
49183;SDS011;35021;49.214;12.270;2022-11-20T06:41:14;9.10;;;8.20;;
49183;SDS011;35021;49.214;12.270;2022-11-20T06:43:42;9.30;;;8.30;;
49183;SDS011;35021;49.214;12.270;2022-11-20T06:46:10;9.88;;;8.88;;
49183;SDS011;35021;49.214;12.270;2022-11-20T06:48:38;9.35;;;8.45;;
49183;SDS011;35021;49.214;12.270;2022-11-20T06:51:06;9.50;;;8.60;;
49183;SDS011;35021;49.214;12.270;2022-11-20T06:53:34;9.27;;;8.15;;
49183;SDS011;35021;49.214;12.270;2022-11-20T06:56:01;9.48;;;8.57;;
49183;SDS011;35021;49.214;12.270;2022-11-20T06:58:29;8.80;;;7.90;;
49183;SDS011;35021;49.214;12.270;2022-11-20T07:00:58;9.55;;;8.55;;
49183;SDS011;35021;49.214;12.270;2022-11-20T07:03:25;10.25;;;9.15;;
49183;SDS011;35021;49.214;12.270;2022-11-20T07:05:54;10.60;;;9.50;;
49183;SDS011;35021;49.214;12.270;2022-11-20T07:08:22;9.25;;;8.35;;
49183;SDS011;35021;49.214;12.270;2022-11-20T07:10:49;9.48;;;8.57;;
49183;SDS011;35021;49.214;12.270;2022-11-20T07:13:16;9.93;;;8.98;;
49183;SDS011;35021;49.214;12.270;2022-11-20T07:15:43;10.43;;;9.32;;
49183;SDS011;35021;49.214;12.270;2022-11-20T07:18:09;9.95;;;9.05;;
49183;SDS011;35021;49.214;12.270;2022-11-20T07:20:36;10.73;;;9.45;;
49183;SDS011;35021;49.214;12.270;2022-11-20T07:23:03;9.52;;;8.63;;
49183;SDS011;35021;49.214;12.270;2022-11-20T07:25:30;10.45;;;9.45;;
49183;SDS011;35021;49.214;12.270;2022-11-20T07:27:57;10.05;;;9.00;;
49183;SDS011;35021;49.214;12.270;2022-11-20T07:30:25;9.70;;;8.80;;
49183;SDS011;35021;49.214;12.270;2022-11-20T07:32:53;11.35;;;10.25;;
49183;SDS011;35021;49.214;12.270;2022-11-20T07:35:21;12.85;;;11.55;;
49183;SDS011;35021;49.214;12.270;2022-11-20T07:37:49;13.07;;;11.77;;
49183;SDS011;35021;49.214;12.270;2022-11-20T07:40:16;12.65;;;11.35;;
49183;SDS011;35021;49.214;12.270;2022-11-20T07:42:50;12.52;;;11.23;;
49183;SDS011;35021;49.214;12.270;2022-11-20T07:45:18;12.23;;;10.88;;
49183;SDS011;35021;49.214;12.270;2022-11-20T07:47:46;10.75;;;9.75;;
49183;SDS011;35021;49.214;12.270;2022-11-20T07:50:13;11.10;;;10.00;;
49183;SDS011;35021;49.214;12.270;2022-11-20T07:52:40;10.95;;;9.85;;
49183;SDS011;35021;49.214;12.270;2022-11-20T07:55:08;10.93;;;9.82;;
49183;SDS011;35021;49.214;12.270;2022-11-20T07:57:35;11.07;;;9.93;;
49183;SDS011;35021;49.214;12.270;2022-11-20T08:00:03;11.40;;;10.30;;
49183;SDS011;35021;49.214;12.270;2022-11-20T08:02:31;10.48;;;9.38;;
49183;SDS011;35021;49.214;12.270;2022-11-20T08:04:57;11.27;;;10.18;;
49183;SDS011;35021;49.214;12.270;2022-11-20T08:07:25;10.18;;;9.18;;
49183;SDS011;35021;49.214;12.270;2022-11-20T08:09:52;9.25;;;8.35;;
49183;SDS011;35021;49.214;12.270;2022-11-20T08:12:19;9.40;;;8.50;;
49183;SDS011;35021;49.214;12.270;2022-11-20T08:17:38;8.52;;;7.72;;
49183;SDS011;35021;49.214;12.270;2022-11-20T08:20:05;9.85;;;8.35;;
49183;SDS011;35021;49.214;12.270;2022-11-20T08:22:33;9.68;;;8.75;;
49183;SDS011;35021;49.214;12.270;2022-11-20T08:24:59;10.50;;;9.45;;
49183;SDS011;35021;49.214;12.270;2022-11-20T08:27:27;10.70;;;9.60;;
49183;SDS011;35021;49.214;12.270;2022-11-20T08:29:53;10.57;;;9.45;;
49183;SDS011;35021;49.214;12.270;2022-11-20T08:32:20;10.60;;;9.52;;
49183;SDS011;35021;49.214;12.270;2022-11-20T08:34:47;12.15;;;10.18;;
49183;SDS011;35021;49.214;12.270;2022-11-20T08:37:14;10.88;;;9.77;;
49183;SDS011;35021;49.214;12.270;2022-11-20T08:39:41;10.73;;;9.63;;
49183;SDS011;35021;49.214;12.270;2022-11-20T08:42:08;12.20;;;9.82;;
49183;SDS011;35021;49.214;12.270;2022-11-20T08:44:35;10.65;;;9.55;;
49183;SDS011;35021;49.214;12.270;2022-11-20T08:47:01;11.77;;;9.77;;
49183;SDS011;35021;49.214;12.270;2022-11-20T08:49:28;11.07;;;9.95;;
49183;SDS011;35021;49.214;12.270;2022-11-20T08:51:55;11.52;;;10.43;;
49183;SDS011;35021;49.214;12.270;2022-11-20T08:54:24;10.52;;;9.45;;
49183;SDS011;35021;49.214;12.270;2022-11-20T08:56:51;10.68;;;9.68;;
49183;SDS011;35021;49.214;12.270;2022-11-20T08:59:17;11.27;;;9.98;;
49183;SDS011;35021;49.214;12.270;2022-11-20T09:04:31;12.52;;;10.32;;
49183;SDS011;35021;49.214;12.270;2022-11-20T09:06:59;11.35;;;10.15;;
49183;SDS011;35021;49.214;12.270;2022-11-20T09:09:26;11.20;;;9.85;;
49183;SDS011;35021;49.214;12.270;2022-11-20T09:11:53;12.25;;;10.45;;
49183;SDS011;35021;49.214;12.270;2022-11-20T09:14:20;11.88;;;10.65;;
49183;SDS011;35021;49.214;12.270;2022-11-20T09:16:47;11.60;;;10.40;;
49183;SDS011;35021;49.214;12.270;2022-11-20T09:19:14;11.00;;;9.90;;
49183;SDS011;35021;49.214;12.270;2022-11-20T09:22:01;11.50;;;9.82;;
49183;SDS011;35021;49.214;12.270;2022-11-20T09:24:28;12.10;;;10.90;;
49183;SDS011;35021;49.214;12.270;2022-11-20T09:26:55;11.02;;;9.82;;
49183;SDS011;35021;49.214;12.270;2022-11-20T09:29:22;11.23;;;9.48;;
49183;SDS011;35021;49.214;12.270;2022-11-20T09:31:49;11.02;;;9.93;;
49183;SDS011;35021;49.214;12.270;2022-11-20T09:34:18;9.80;;;8.80;;
49183;SDS011;35021;49.214;12.270;2022-11-20T09:36:45;11.57;;;10.38;;
49183;SDS011;35021;49.214;12.270;2022-11-20T09:39:13;10.20;;;9.20;;
49183;SDS011;35021;49.214;12.270;2022-11-20T09:41:56;312.05;;;40.85;;
49183;SDS011;35021;49.214;12.270;2022-11-20T09:47:08;281.25;;;54.97;;
49183;SDS011;35021;49.214;12.270;2022-11-20T09:52:41;132.88;;;31.10;;
49183;SDS011;35021;49.214;12.270;2022-11-20T09:55:38;114.13;;;26.25;;
49183;SDS011;35021;49.214;12.270;2022-11-20T09:58:24;91.93;;;23.17;;
49183;SDS011;35021;49.214;12.270;2022-11-20T10:01:16;72.15;;;19.85;;
49183;SDS011;35021;49.214;12.270;2022-11-20T10:03:51;53.15;;;17.17;;
49183;SDS011;35021;49.214;12.270;2022-11-20T10:06:32;36.97;;;14.65;;
49183;SDS011;35021;49.214;12.270;2022-11-20T10:16:50;20.30;;;9.95;;
49183;SDS011;35021;49.214;12.270;2022-11-20T10:30:38;10.68;;;7.03;;
49183;SDS011;35021;49.214;12.270;2022-11-20T10:33:29;13.93;;;7.10;;
49183;SDS011;35021;49.214;12.270;2022-11-20T10:36:23;9.43;;;5.97;;
49183;SDS011;35021;49.214;12.270;2022-11-20T10:38:59;8.55;;;5.65;;
49183;SDS011;35021;49.214;12.270;2022-11-20T10:41:34;7.88;;;5.57;;
49183;SDS011;35021;49.214;12.270;2022-11-20T10:44:14;5.97;;;5.03;;
49183;SDS011;35021;49.214;12.270;2022-11-20T10:47:03;7.05;;;5.30;;
49183;SDS011;35021;49.214;12.270;2022-11-20T10:49:32;7.47;;;5.00;;
49183;SDS011;35021;49.214;12.270;2022-11-20T10:55:30;5.90;;;4.45;;
49183;SDS011;35021;49.214;12.270;2022-11-20T10:57:56;4.43;;;4.00;;
49183;SDS011;35021;49.214;12.270;2022-11-20T11:00:32;5.80;;;3.72;;
49183;SDS011;35021;49.214;12.270;2022-11-20T11:03:00;5.45;;;3.47;;
49183;SDS011;35021;49.214;12.270;2022-11-20T11:08:11;4.15;;;3.10;;
49183;SDS011;35021;49.214;12.270;2022-11-20T11:13:18;3.25;;;2.92;;
49183;SDS011;35021;49.214;12.270;2022-11-20T11:15:46;4.57;;;3.20;;
49183;SDS011;35021;49.214;12.270;2022-11-20T11:18:22;4.50;;;3.40;;
49183;SDS011;35021;49.214;12.270;2022-11-20T11:21:00;4.38;;;2.92;;
49183;SDS011;35021;49.214;12.270;2022-11-20T11:23:32;4.53;;;2.90;;
49183;SDS011;35021;49.214;12.270;2022-11-20T11:26:20;3.60;;;2.80;;
49183;SDS011;35021;49.214;12.270;2022-11-20T11:28:53;3.85;;;2.70;;
49183;SDS011;35021;49.214;12.270;2022-11-20T11:31:28;4.07;;;2.60;;
49183;SDS011;35021;49.214;12.270;2022-11-20T11:34:08;3.75;;;2.30;;
49183;SDS011;35021;49.214;12.270;2022-11-20T11:36:42;4.00;;;2.17;;
49183;SDS011;35021;49.214;12.270;2022-11-20T11:39:15;3.30;;;2.22;;
49183;SDS011;35021;49.214;12.270;2022-11-20T11:41:46;3.15;;;2.40;;
49183;SDS011;35021;49.214;12.270;2022-11-20T11:44:19;3.88;;;2.42;;
49183;SDS011;35021;49.214;12.270;2022-11-20T11:47:05;3.55;;;2.10;;
49183;SDS011;35021;49.214;12.270;2022-11-20T11:49:37;2.63;;;1.92;;
49183;SDS011;35021;49.214;12.270;2022-11-20T11:52:10;3.53;;;2.20;;
49183;SDS011;35021;49.214;12.270;2022-11-20T11:54:53;2.00;;;1.80;;
49183;SDS011;35021;49.214;12.270;2022-11-20T12:00:10;4.32;;;1.90;;
49183;SDS011;35021;49.214;12.270;2022-11-20T12:08:03;2.75;;;1.90;;
49183;SDS011;35021;49.214;12.270;2022-11-20T12:16:04;2.00;;;1.80;;
49183;SDS011;35021;49.214;12.270;2022-11-20T12:18:31;2.15;;;1.70;;
49183;SDS011;35021;49.214;12.270;2022-11-20T12:26:57;1.88;;;1.30;;
49183;SDS011;35021;49.214;12.270;2022-11-20T12:29:47;2.05;;;1.63;;
49183;SDS011;35021;49.214;12.270;2022-11-20T12:32:35;1.75;;;1.55;;
49183;SDS011;35021;49.214;12.270;2022-11-20T12:41:12;2.03;;;1.55;;
49183;SDS011;35021;49.214;12.270;2022-11-20T12:47:10;2.20;;;1.58;;
49183;SDS011;35021;49.214;12.270;2022-11-20T12:49:48;1.95;;;1.50;;
49183;SDS011;35021;49.214;12.270;2022-11-20T12:52:34;1.60;;;1.33;;
49183;SDS011;35021;49.214;12.270;2022-11-20T13:01:30;1.70;;;1.33;;
49183;SDS011;35021;49.214;12.270;2022-11-20T13:07:03;1.52;;;1.20;;
49183;SDS011;35021;49.214;12.270;2022-11-20T13:09:34;1.30;;;1.20;;
49183;SDS011;35021;49.214;12.270;2022-11-20T13:20:26;1.42;;;1.10;;
49183;SDS011;35021;49.214;12.270;2022-11-20T13:22:55;1.40;;;1.23;;
49183;SDS011;35021;49.214;12.270;2022-11-20T13:25:30;1.30;;;1.10;;
49183;SDS011;35021;49.214;12.270;2022-11-20T13:30:48;1.00;;;0.90;;
49183;SDS011;35021;49.214;12.270;2022-11-20T13:36:04;1.27;;;1.05;;
49183;SDS011;35021;49.214;12.270;2022-11-20T13:38:43;0.75;;;0.70;;
49183;SDS011;35021;49.214;12.270;2022-11-20T13:41:34;1.30;;;1.02;;
49183;SDS011;35021;49.214;12.270;2022-11-20T13:46:45;1.00;;;0.88;;
49183;SDS011;35021;49.214;12.270;2022-11-20T13:49:25;0.77;;;0.77;;
49183;SDS011;35021;49.214;12.270;2022-11-20T13:52:59;0.90;;;0.80;;
49183;SDS011;35021;49.214;12.270;2022-11-20T14:00:29;0.95;;;0.80;;
49183;SDS011;35021;49.214;12.270;2022-11-20T14:05:36;0.70;;;0.60;;
49183;SDS011;35021;49.214;12.270;2022-11-20T14:08:06;0.95;;;0.77;;
49183;SDS011;35021;49.214;12.270;2022-11-20T14:10:40;1.05;;;0.70;;
49183;SDS011;35021;49.214;12.270;2022-11-20T14:13:19;0.90;;;0.68;;
49183;SDS011;35021;49.214;12.270;2022-11-20T14:15:47;0.93;;;0.77;;
49183;SDS011;35021;49.214;12.270;2022-11-20T14:18:15;0.68;;;0.68;;
49183;SDS011;35021;49.214;12.270;2022-11-20T14:20:46;0.70;;;0.50;;
49183;SDS011;35021;49.214;12.270;2022-11-20T14:23:22;0.52;;;0.45;;
49183;SDS011;35021;49.214;12.270;2022-11-20T14:25:55;1.13;;;0.50;;
49183;SDS011;35021;49.214;12.270;2022-11-20T14:28:26;0.75;;;0.60;;
49183;SDS011;35021;49.214;12.270;2022-11-20T14:30:56;0.90;;;0.63;;
49183;SDS011;35021;49.214;12.270;2022-11-20T14:33:23;0.73;;;0.50;;
49183;SDS011;35021;49.214;12.270;2022-11-20T14:35:52;0.63;;;0.60;;
49183;SDS011;35021;49.214;12.270;2022-11-20T14:38:22;1.08;;;0.70;;
49183;SDS011;35021;49.214;12.270;2022-11-20T14:40:52;0.70;;;0.70;;
49183;SDS011;35021;49.214;12.270;2022-11-20T14:45:56;0.70;;;0.70;;
49183;SDS011;35021;49.214;12.270;2022-11-20T14:48:51;0.80;;;0.63;;
49183;SDS011;35021;49.214;12.270;2022-11-20T14:56:37;0.90;;;0.70;;
49183;SDS011;35021;49.214;12.270;2022-11-20T14:59:05;0.85;;;0.65;;
49183;SDS011;35021;49.214;12.270;2022-11-20T15:01:33;0.98;;;0.77;;
49183;SDS011;35021;49.214;12.270;2022-11-20T15:04:02;0.70;;;0.60;;
49183;SDS011;35021;49.214;12.270;2022-11-20T15:06:48;1.10;;;0.90;;
49183;SDS011;35021;49.214;12.270;2022-11-20T15:09:16;0.80;;;0.70;;
49183;SDS011;35021;49.214;12.270;2022-11-20T15:11:54;0.88;;;0.70;;
49183;SDS011;35021;49.214;12.270;2022-11-20T15:14:23;0.70;;;0.57;;
49183;SDS011;35021;49.214;12.270;2022-11-20T15:16:51;0.50;;;0.50;;
49183;SDS011;35021;49.214;12.270;2022-11-20T15:19:20;0.75;;;0.50;;
49183;SDS011;35021;49.214;12.270;2022-11-20T15:21:49;1.80;;;0.60;;
49183;SDS011;35021;49.214;12.270;2022-11-20T15:24:16;0.52;;;0.52;;
49183;SDS011;35021;49.214;12.270;2022-11-20T15:26:43;0.70;;;0.70;;
49183;SDS011;35021;49.214;12.270;2022-11-20T15:29:12;0.95;;;0.65;;
49183;SDS011;35021;49.214;12.270;2022-11-20T15:31:40;0.45;;;0.45;;
49183;SDS011;35021;49.214;12.270;2022-11-20T15:34:12;1.83;;;0.70;;
49183;SDS011;35021;49.214;12.270;2022-11-20T15:36:42;1.30;;;0.90;;
49183;SDS011;35021;49.214;12.270;2022-11-20T15:39:10;0.95;;;0.70;;
49183;SDS011;35021;49.214;12.270;2022-11-20T15:41:37;0.77;;;0.50;;
49183;SDS011;35021;49.214;12.270;2022-11-20T15:44:05;0.60;;;0.60;;
49183;SDS011;35021;49.214;12.270;2022-11-20T15:46:32;0.52;;;0.50;;
49183;SDS011;35021;49.214;12.270;2022-11-20T15:49:12;0.52;;;0.52;;
49183;SDS011;35021;49.214;12.270;2022-11-20T15:51:44;0.52;;;0.52;;
49183;SDS011;35021;49.214;12.270;2022-11-20T15:54:14;0.60;;;0.60;;
49183;SDS011;35021;49.214;12.270;2022-11-20T15:56:47;1.52;;;0.90;;
49183;SDS011;35021;49.214;12.270;2022-11-20T15:59:15;0.95;;;0.80;;
49183;SDS011;35021;49.214;12.270;2022-11-20T16:01:42;0.60;;;0.60;;
49183;SDS011;35021;49.214;12.270;2022-11-20T16:04:12;0.75;;;0.65;;
49183;SDS011;35021;49.214;12.270;2022-11-20T16:06:41;0.60;;;0.52;;
49183;SDS011;35021;49.214;12.270;2022-11-20T16:09:08;0.60;;;0.60;;
49183;SDS011;35021;49.214;12.270;2022-11-20T16:11:35;0.90;;;0.80;;
49183;SDS011;35021;49.214;12.270;2022-11-20T16:14:03;1.38;;;0.70;;
49183;SDS011;35021;49.214;12.270;2022-11-20T16:16:48;0.65;;;0.60;;
49183;SDS011;35021;49.214;12.270;2022-11-20T16:19:15;0.98;;;0.60;;
49183;SDS011;35021;49.214;12.270;2022-11-20T16:21:44;1.27;;;1.13;;
49183;SDS011;35021;49.214;12.270;2022-11-20T16:24:12;0.90;;;0.73;;
49183;SDS011;35021;49.214;12.270;2022-11-20T16:26:40;0.73;;;0.60;;
49183;SDS011;35021;49.214;12.270;2022-11-20T16:29:07;0.50;;;0.50;;
49183;SDS011;35021;49.214;12.270;2022-11-20T16:31:34;0.82;;;0.70;;
49183;SDS011;35021;49.214;12.270;2022-11-20T16:34:03;0.77;;;0.70;;
49183;SDS011;35021;49.214;12.270;2022-11-20T16:36:48;0.70;;;0.68;;
49183;SDS011;35021;49.214;12.270;2022-11-20T16:39:15;1.17;;;0.75;;
49183;SDS011;35021;49.214;12.270;2022-11-20T16:41:48;0.93;;;0.80;;
49183;SDS011;35021;49.214;12.270;2022-11-20T16:44:15;0.50;;;0.47;;
49183;SDS011;35021;49.214;12.270;2022-11-20T16:46:42;1.52;;;0.70;;
49183;SDS011;35021;49.214;12.270;2022-11-20T16:49:13;1.45;;;0.60;;
49183;SDS011;35021;49.214;12.270;2022-11-20T16:51:40;0.82;;;0.73;;
49183;SDS011;35021;49.214;12.270;2022-11-20T16:54:08;2.25;;;0.80;;
49183;SDS011;35021;49.214;12.270;2022-11-20T16:56:36;0.88;;;0.73;;